createdAt,value
2022-12-25T00:00:03.634Z,67.65
2022-12-25T00:01:04.676Z,60.99
2022-12-25T00:02:03.646Z,69.20
2022-12-25T00:03:03.685Z,68.60
2022-12-25T00:04:03.727Z,59.67
2022-12-25T00:05:03.588Z,61.51
2022-12-25T00:06:03.619Z,68.50
2022-12-25T00:07:03.574Z,65.91
2022-12-25T00:08:03.592Z,70.76
2022-12-25T00:09:03.539Z,61.44
2022-12-25T00:10:03.555Z,68.59
2022-12-25T00:11:03.524Z,61.55
2022-12-25T00:12:04.500Z,55.99
2022-12-25T00:13:03.537Z,60.57
2022-12-25T00:14:03.503Z,68.18
2022-12-25T00:15:03.542Z,62.05
2022-12-25T00:16:03.489Z,61.08
2022-12-25T00:17:03.445Z,65.82
2022-12-25T00:18:03.464Z,65.47
2022-12-25T00:19:03.437Z,62.94
2022-12-25T00:20:03.409Z,68.42
2022-12-25T00:21:03.413Z,59.03
2022-12-25T00:22:03.389Z,55.81
2022-12-25T00:23:03.382Z,61.97
2022-12-25T00:24:03.384Z,61.96
2022-12-25T00:25:03.354Z,64.25
2022-12-25T00:26:03.377Z,59.76
2022-12-25T00:27:03.379Z,60.26
2022-12-25T00:28:03.333Z,54.88
2022-12-25T00:29:03.325Z,59.06
2022-12-25T00:30:03.297Z,62.83
2022-12-25T00:31:03.306Z,65.13
2022-12-25T00:32:03.331Z,59.37
2022-12-25T00:33:03.276Z,67.92
2022-12-25T00:34:03.260Z,63.83
2022-12-25T00:35:03.233Z,60.98
2022-12-25T00:36:03.257Z,64.52
2022-12-25T00:37:03.226Z,58.70
2022-12-25T00:38:03.226Z,64.51
2022-12-25T00:39:03.217Z,59.11
2022-12-25T00:40:03.195Z,48.79
2022-12-25T00:41:03.258Z,55.50
2022-12-25T00:42:03.154Z,57.62
2022-12-25T00:43:03.178Z,68.64
2022-12-25T00:44:03.147Z,54.01
2022-12-25T00:45:03.136Z,63.34
2022-12-25T00:46:03.246Z,69.93
2022-12-25T00:47:03.200Z,69.05
2022-12-25T00:48:03.125Z,67.13
2022-12-25T00:49:03.102Z,57.50
2022-12-25T00:50:03.076Z,63.95
2022-12-25T00:51:03.069Z,63.16
2022-12-25T00:52:03.051Z,64.97
2022-12-25T00:53:03.041Z,56.07
2022-12-25T00:54:03.045Z,60.88
2022-12-25T00:55:03.033Z,58.55
2022-12-25T00:56:03.028Z,61.33
2022-12-25T00:57:02.985Z,63.02
2022-12-25T00:58:02.974Z,48.46
2022-12-25T00:59:03.009Z,64.26
2022-12-25T01:00:02.968Z,62.71
2022-12-25T01:01:03.134Z,59.29
2022-12-25T01:02:03.031Z,58.61
2022-12-25T01:03:03.069Z,61.77
2022-12-25T01:04:02.912Z,65.22
2022-12-25T01:05:02.909Z,68.22
2022-12-25T01:06:02.891Z,64.03
2022-12-25T01:07:02.886Z,62.65
2022-12-25T01:08:02.890Z,50.97
2022-12-25T01:09:02.865Z,50.33
2022-12-25T01:10:02.870Z,62.92
2022-12-25T01:11:02.830Z,69.80
2022-12-25T01:12:02.822Z,60.21
2022-12-25T01:13:02.810Z,58.51
2022-12-25T01:14:02.783Z,58.75
2022-12-25T01:15:02.815Z,62.36
2022-12-25T01:16:02.800Z,54.11
2022-12-25T01:17:02.784Z,60.02
2022-12-25T01:18:07.442Z,64.89
2022-12-25T01:19:04.727Z,55.47
2022-12-25T01:20:02.728Z,61.05
2022-12-25T01:21:02.703Z,52.46
2022-12-25T01:22:02.729Z,51.74
2022-12-25T01:23:02.715Z,63.83
2022-12-25T01:24:02.671Z,49.86
2022-12-25T01:25:02.686Z,56.39
2022-12-25T01:26:02.657Z,47.94
2022-12-25T01:27:02.660Z,47.62
2022-12-25T01:28:02.657Z,53.26
2022-12-25T01:29:02.650Z,50.51
2022-12-25T01:30:02.752Z,65.26
2022-12-25T01:31:02.597Z,50.54
2022-12-25T01:32:02.656Z,47.41
2022-12-25T01:33:02.625Z,57.83
2022-12-25T01:34:02.596Z,48.72
2022-12-25T01:35:02.557Z,60.17
2022-12-25T01:36:02.563Z,53.40
2022-12-25T01:37:02.561Z,58.28
2022-12-25T01:38:02.552Z,54.79
2022-12-25T01:39:02.541Z,65.07
2022-12-25T01:40:02.499Z,50.87
2022-12-25T01:41:02.524Z,49.02
2022-12-25T01:42:02.483Z,64.37
2022-12-25T01:43:02.479Z,55.32
2022-12-25T01:44:02.493Z,57.76
2022-12-25T01:45:02.436Z,65.05
2022-12-25T01:46:02.452Z,57.36
2022-12-25T01:47:02.446Z,49.19
2022-12-25T01:48:02.607Z,49.43
2022-12-25T01:49:02.422Z,60.77
2022-12-25T01:50:02.418Z,49.44
2022-12-25T01:51:02.377Z,48.48
2022-12-25T01:52:02.360Z,59.18
2022-12-25T01:53:02.393Z,58.33
2022-12-25T01:54:02.396Z,56.71
2022-12-25T01:55:02.337Z,48.21
2022-12-25T01:56:02.326Z,62.14
2022-12-25T01:57:02.281Z,51.90
2022-12-25T01:58:03.322Z,52.14
2022-12-25T01:59:02.285Z,63.02
2022-12-25T02:00:02.320Z,55.48
2022-12-25T02:01:02.312Z,63.82
2022-12-25T02:02:02.385Z,58.11
2022-12-25T02:03:02.321Z,62.54
2022-12-25T02:04:02.271Z,65.84
2022-12-25T02:05:02.262Z,53.53
2022-12-25T02:06:02.222Z,61.80
2022-12-25T02:07:02.189Z,49.93
2022-12-25T02:08:02.219Z,61.67
2022-12-25T02:09:02.176Z,60.47
2022-12-25T02:10:02.154Z,64.99
2022-12-25T02:11:02.141Z,49.30
2022-12-25T02:12:02.179Z,48.67
2022-12-25T02:13:02.129Z,50.88
2022-12-25T02:14:02.110Z,57.81
2022-12-25T02:15:05.770Z,59.13
2022-12-25T02:16:03.144Z,53.38
2022-12-25T02:17:02.169Z,52.74
2022-12-25T02:18:02.094Z,46.51
2022-12-25T02:19:02.050Z,46.95
2022-12-25T02:20:02.063Z,45.89
2022-12-25T02:21:02.051Z,46.65
2022-12-25T02:22:02.032Z,49.34
2022-12-25T02:23:02.053Z,49.64
2022-12-25T02:24:02.108Z,64.27
2022-12-25T02:25:02.014Z,61.75
2022-12-25T02:26:02.002Z,57.69
2022-12-25T02:27:01.988Z,50.92
2022-12-25T02:28:01.965Z,47.74
2022-12-25T02:29:01.973Z,56.13
2022-12-25T02:30:01.927Z,54.19
2022-12-25T02:31:01.918Z,49.95
2022-12-25T02:32:01.952Z,56.24
2022-12-25T02:33:01.905Z,61.01
2022-12-25T02:34:01.934Z,51.71
2022-12-25T02:35:01.910Z,51.27
2022-12-25T02:36:01.902Z,55.33
2022-12-25T02:37:02.563Z,52.29
2022-12-25T02:38:01.833Z,57.97
2022-12-25T02:39:01.852Z,52.49
2022-12-25T02:40:01.840Z,58.85
2022-12-25T02:41:01.808Z,51.12
2022-12-25T02:42:01.795Z,50.59
2022-12-25T02:43:01.792Z,53.88
2022-12-25T02:44:01.779Z,52.48
2022-12-25T02:45:01.780Z,47.73
2022-12-25T02:46:01.806Z,56.98
2022-12-25T02:47:01.806Z,59.28
2022-12-25T02:48:01.747Z,51.79
2022-12-25T02:49:01.716Z,51.23
2022-12-25T02:50:01.798Z,60.40
2022-12-25T02:51:01.750Z,53.96
2022-12-25T02:52:01.721Z,56.27
2022-12-25T02:53:01.704Z,60.34
2022-12-25T02:54:01.656Z,52.99
2022-12-25T02:55:01.649Z,54.29
2022-12-25T02:56:01.636Z,51.40
2022-12-25T02:57:01.709Z,49.55
2022-12-25T02:58:01.601Z,63.72
2022-12-25T02:59:01.615Z,56.01
2022-12-25T03:00:01.581Z,48.56
2022-12-25T03:01:01.599Z,54.57
2022-12-25T03:02:01.703Z,53.32
2022-12-25T03:03:01.588Z,64.56
2022-12-25T03:04:01.563Z,51.61
2022-12-25T03:05:01.533Z,62.57
2022-12-25T03:06:01.516Z,60.14
2022-12-25T03:07:01.505Z,57.63
2022-12-25T03:08:01.555Z,66.20
2022-12-25T03:09:01.544Z,57.99
2022-12-25T03:10:01.461Z,52.13
2022-12-25T03:11:02.462Z,50.12
2022-12-25T03:12:01.496Z,56.00
2022-12-25T03:13:01.449Z,59.77
2022-12-25T03:14:01.417Z,49.77
2022-12-25T03:15:01.417Z,61.49
2022-12-25T03:16:01.405Z,58.96
2022-12-25T03:17:01.489Z,65.03
2022-12-25T03:18:01.398Z,63.77
2022-12-25T03:19:01.378Z,50.09
2022-12-25T03:20:01.362Z,49.81
2022-12-25T03:21:01.351Z,48.26
2022-12-25T03:22:01.334Z,51.62
2022-12-25T03:23:01.422Z,52.53
2022-12-25T03:24:01.334Z,60.62
2022-12-25T03:25:01.341Z,58.42
2022-12-25T03:26:01.309Z,51.85
2022-12-25T03:27:01.289Z,50.20
2022-12-25T03:28:01.277Z,59.95
2022-12-25T03:29:01.312Z,53.04
2022-12-25T03:30:01.252Z,52.98
2022-12-25T03:31:01.306Z,51.55
2022-12-25T03:32:01.224Z,50.01
2022-12-25T03:33:09.557Z,58.82
2022-12-25T03:34:03.238Z,49.83
2022-12-25T03:35:01.203Z,58.88
2022-12-25T03:36:01.192Z,60.12
2022-12-25T03:37:01.161Z,64.39
2022-12-25T03:38:01.167Z,49.79
2022-12-25T03:39:01.192Z,48.40
2022-12-25T03:40:01.166Z,49.09
2022-12-25T03:41:01.126Z,49.61
2022-12-25T03:42:01.122Z,57.39
2022-12-25T03:43:01.131Z,56.20
2022-12-25T03:44:01.091Z,48.93
2022-12-25T03:45:01.127Z,56.60
2022-12-25T03:46:01.125Z,48.37
2022-12-25T03:47:01.092Z,48.58
2022-12-25T03:48:01.076Z,56.87
2022-12-25T03:49:01.061Z,58.82
2022-12-25T03:50:01.039Z,49.41
2022-12-25T03:51:01.987Z,54.42
2022-12-25T03:52:01.020Z,58.81
2022-12-25T03:53:00.993Z,49.11
2022-12-25T03:54:00.996Z,47.60
2022-12-25T03:55:00.977Z,47.91
2022-12-25T03:56:00.984Z,48.97
2022-12-25T03:57:00.967Z,48.54
2022-12-25T03:58:00.957Z,57.35
2022-12-25T03:59:00.928Z,54.55
2022-12-25T04:00:00.942Z,62.03
2022-12-25T04:01:01.025Z,62.71
2022-12-25T04:02:01.025Z,61.24
2022-12-25T04:03:01.002Z,54.75
2022-12-25T04:04:00.874Z,61.05
2022-12-25T04:05:00.857Z,49.78
2022-12-25T04:06:00.862Z,61.66
2022-12-25T04:07:01.432Z,50.94
2022-12-25T04:08:00.865Z,59.69
2022-12-25T04:09:00.959Z,49.89
2022-12-25T04:10:00.802Z,55.55
2022-12-25T04:11:00.803Z,59.39
2022-12-25T04:12:03.030Z,49.50
2022-12-25T04:13:01.822Z,51.15
2022-12-25T04:14:00.755Z,55.55
2022-12-25T04:15:00.786Z,56.59
2022-12-25T04:16:00.888Z,64.37
2022-12-25T04:17:00.721Z,65.47
2022-12-25T04:18:00.742Z,52.21
2022-12-25T04:19:01.748Z,59.55
2022-12-25T04:20:00.695Z,58.76
2022-12-25T04:21:00.667Z,64.86
2022-12-25T04:22:00.668Z,56.99
2022-12-25T04:23:00.685Z,54.53
2022-12-25T04:24:32.557Z,57.32
2022-12-25T04:25:00.634Z,66.66
2022-12-25T04:26:00.619Z,59.90
2022-12-25T04:27:00.603Z,63.37
2022-12-25T04:28:00.621Z,54.82
2022-12-25T04:29:01.585Z,60.59
2022-12-25T04:30:00.640Z,56.98
2022-12-25T04:31:00.593Z,60.15
2022-12-25T04:32:00.551Z,65.19
2022-12-25T04:33:00.585Z,63.06
2022-12-25T04:34:00.547Z,64.38
2022-12-25T04:35:00.520Z,51.43
2022-12-25T04:36:00.551Z,63.91
2022-12-25T04:37:00.515Z,54.89
2022-12-25T04:38:00.486Z,48.06
2022-12-25T04:39:00.485Z,54.43
2022-12-25T04:40:00.523Z,56.44
2022-12-25T04:41:00.458Z,56.31
2022-12-25T04:42:00.437Z,62.54
2022-12-25T04:43:00.423Z,62.78
2022-12-25T04:44:00.425Z,64.19
2022-12-25T04:45:00.452Z,64.48
2022-12-25T04:46:00.458Z,58.40
2022-12-25T04:47:02.525Z,64.47
2022-12-25T04:48:01.366Z,62.18
2022-12-25T04:49:00.346Z,56.61
2022-12-25T04:50:00.354Z,62.20
2022-12-25T04:51:00.328Z,56.02
2022-12-25T04:52:00.313Z,59.18
2022-12-25T04:53:00.313Z,66.03
2022-12-25T04:54:00.289Z,56.37
2022-12-25T04:55:00.291Z,59.57
2022-12-25T04:56:00.269Z,58.80
2022-12-25T04:57:00.321Z,65.77
2022-12-25T04:58:00.295Z,65.98
2022-12-25T04:59:00.286Z,59.36
2022-12-25T05:00:00.269Z,59.87
2022-12-25T05:01:00.234Z,56.77
2022-12-25T05:02:00.383Z,57.04
2022-12-25T05:03:00.516Z,61.26
2022-12-25T05:04:00.238Z,66.63
2022-12-25T05:05:00.241Z,67.49
2022-12-25T05:06:00.170Z,60.37
2022-12-25T05:07:00.158Z,55.52
2022-12-25T05:08:00.133Z,59.56
2022-12-25T05:09:00.128Z,65.94
2022-12-25T05:10:00.123Z,64.51
2022-12-25T05:11:00.130Z,59.56
2022-12-25T05:12:00.103Z,51.86
2022-12-25T05:13:00.109Z,53.93
2022-12-25T05:14:00.116Z,63.43
2022-12-25T05:15:00.129Z,49.86
2022-12-25T05:16:00.076Z,58.83
2022-12-25T05:17:00.075Z,49.59
2022-12-25T05:18:00.028Z,62.96
2022-12-25T05:19:00.026Z,51.55
2022-12-25T05:20:00.000Z,66.08
2022-12-25T05:20:59.984Z,67.69
2022-12-25T05:22:00.003Z,61.38
2022-12-25T05:22:59.959Z,67.15
2022-12-25T05:23:59.958Z,57.67
2022-12-25T05:24:59.945Z,49.99
2022-12-25T05:26:00.000Z,58.55
2022-12-25T05:26:59.937Z,60.54
2022-12-25T05:27:59.928Z,50.80
2022-12-25T05:28:59.893Z,58.46
2022-12-25T05:29:59.888Z,66.33
2022-12-25T05:30:59.986Z,55.83
2022-12-25T05:31:59.883Z,67.46
2022-12-25T05:32:59.861Z,53.49
2022-12-25T05:33:59.871Z,52.98
2022-12-25T05:34:59.861Z,65.15
2022-12-25T05:35:59.845Z,67.44
2022-12-25T05:36:59.825Z,60.84
2022-12-25T05:37:59.821Z,51.81
2022-12-25T05:38:59.817Z,62.87
2022-12-25T05:39:59.805Z,67.15
2022-12-25T05:40:59.773Z,59.78
2022-12-25T05:41:59.795Z,61.09
2022-12-25T05:42:59.812Z,55.73
2022-12-25T05:43:59.789Z,55.70
2022-12-25T05:44:59.748Z,59.55
2022-12-25T05:45:59.741Z,64.72
2022-12-25T05:46:59.757Z,59.58
2022-12-25T05:47:59.702Z,59.45
2022-12-25T05:48:59.707Z,64.02
2022-12-25T05:49:59.678Z,59.93
2022-12-25T05:50:59.700Z,62.70
2022-12-25T05:51:59.661Z,51.79
2022-12-25T05:53:05.962Z,59.49
2022-12-25T05:54:01.633Z,59.59
2022-12-25T05:54:59.628Z,61.47
2022-12-25T05:55:59.642Z,55.58
2022-12-25T05:56:59.627Z,55.69
2022-12-25T05:57:59.581Z,52.42
2022-12-25T05:58:59.570Z,63.74
2022-12-25T05:59:59.588Z,57.24
2022-12-25T06:00:59.631Z,63.95
2022-12-25T06:01:59.655Z,60.60
2022-12-25T06:02:59.626Z,57.13
2022-12-25T06:03:59.682Z,60.25
2022-12-25T06:04:59.530Z,60.57
2022-12-25T06:05:59.596Z,56.35
2022-12-25T06:06:59.512Z,53.24
2022-12-25T06:08:00.522Z,53.19
2022-12-25T06:08:59.511Z,56.48
2022-12-25T06:09:59.446Z,59.65
2022-12-25T06:10:59.504Z,60.66
2022-12-25T06:11:59.500Z,58.00
2022-12-25T06:12:59.419Z,67.16
2022-12-25T06:13:59.423Z,57.52
2022-12-25T06:14:59.434Z,59.45
2022-12-25T06:15:59.475Z,58.63
2022-12-25T06:16:59.472Z,62.91
2022-12-25T06:17:59.369Z,61.43
2022-12-25T06:18:59.376Z,63.90
2022-12-25T06:19:59.358Z,56.38
2022-12-25T06:20:59.347Z,59.95
2022-12-25T06:21:59.398Z,60.62
2022-12-25T06:22:59.334Z,61.60
2022-12-25T06:24:00.464Z,55.31
2022-12-25T06:24:59.322Z,59.92
2022-12-25T06:25:59.328Z,65.50
2022-12-25T06:26:59.287Z,57.93
2022-12-25T06:27:59.312Z,60.80
2022-12-25T06:28:59.324Z,60.83
2022-12-25T06:29:59.344Z,61.96
2022-12-25T06:30:59.238Z,66.18
2022-12-25T06:31:59.299Z,57.64
2022-12-25T06:32:59.274Z,61.06
2022-12-25T06:33:59.205Z,60.78
2022-12-25T06:34:59.279Z,53.71
2022-12-25T06:35:59.217Z,66.60
2022-12-25T06:36:59.175Z,58.64
2022-12-25T06:37:59.203Z,62.75
2022-12-25T06:38:59.174Z,60.50
2022-12-25T06:39:59.130Z,67.33
2022-12-25T06:40:59.132Z,57.41
2022-12-25T06:41:59.113Z,62.37
2022-12-25T06:42:59.091Z,58.09
2022-12-25T06:43:59.115Z,63.15
2022-12-25T06:44:59.203Z,65.57
2022-12-25T06:45:59.089Z,59.70
2022-12-25T06:46:59.061Z,60.90
2022-12-25T06:47:59.152Z,61.60
2022-12-25T06:48:59.044Z,58.24
2022-12-25T06:49:59.018Z,66.21
2022-12-25T06:50:59.027Z,53.35
2022-12-25T06:51:58.987Z,64.05
2022-12-25T06:52:58.963Z,56.40
2022-12-25T06:53:59.038Z,47.99
2022-12-25T06:54:58.967Z,59.35
2022-12-25T06:55:58.960Z,64.50
2022-12-25T06:56:58.940Z,59.17
2022-12-25T06:57:58.922Z,67.26
2022-12-25T06:58:58.927Z,50.41
2022-12-25T06:59:58.904Z,64.91
2022-12-25T07:00:58.960Z,62.64
2022-12-25T07:01:59.067Z,65.25
2022-12-25T07:02:59.014Z,56.19
2022-12-25T07:03:58.875Z,49.88
2022-12-25T07:04:58.867Z,68.28
2022-12-25T07:05:58.924Z,54.93
2022-12-25T07:07:04.417Z,49.24
2022-12-25T07:08:00.804Z,57.95
2022-12-25T07:08:58.846Z,59.66
2022-12-25T07:09:58.793Z,64.36
2022-12-25T07:10:58.777Z,67.32
2022-12-25T07:11:58.783Z,53.45
2022-12-25T07:12:58.774Z,52.15
2022-12-25T07:13:58.755Z,48.98
2022-12-25T07:14:58.809Z,55.06
2022-12-25T07:15:58.764Z,62.39
2022-12-25T07:16:58.795Z,64.66
2022-12-25T07:17:58.686Z,56.96
2022-12-25T07:18:58.695Z,60.22
2022-12-25T07:19:58.704Z,66.99
2022-12-25T07:20:58.660Z,66.61
2022-12-25T07:21:58.698Z,61.22
2022-12-25T07:22:58.648Z,62.09
2022-12-25T07:23:58.623Z,68.30
2022-12-25T07:24:58.621Z,65.84
2022-12-25T07:25:58.625Z,64.33
2022-12-25T07:26:58.615Z,62.79
2022-12-25T07:27:58.615Z,64.60
2022-12-25T07:28:58.590Z,66.88
2022-12-25T07:29:58.602Z,57.83
2022-12-25T07:30:58.554Z,63.26
2022-12-25T07:31:58.599Z,62.25
2022-12-25T07:32:58.543Z,64.46
2022-12-25T07:33:58.546Z,65.04
2022-12-25T07:34:58.522Z,68.11
2022-12-25T07:35:58.507Z,67.69
2022-12-25T07:36:58.490Z,64.14
2022-12-25T07:37:58.487Z,57.67
2022-12-25T07:38:58.481Z,59.73
2022-12-25T07:39:58.448Z,66.72
2022-12-25T07:40:58.540Z,65.34
2022-12-25T07:41:58.469Z,66.91
2022-12-25T07:42:58.454Z,67.36
2022-12-25T07:43:58.473Z,65.81
2022-12-25T07:44:58.444Z,68.77
2022-12-25T07:45:58.442Z,70.84
2022-12-25T07:46:58.371Z,62.15
2022-12-25T07:48:04.325Z,67.97
2022-12-25T07:49:00.360Z,65.97
2022-12-25T07:49:58.367Z,66.47
2022-12-25T07:50:58.331Z,67.83
2022-12-25T07:51:58.337Z,65.07
2022-12-25T07:52:58.321Z,64.90
2022-12-25T07:53:58.304Z,68.33
2022-12-25T07:54:58.294Z,70.35
2022-12-25T07:55:58.348Z,66.92
2022-12-25T07:56:58.283Z,64.61
2022-12-25T07:57:58.256Z,63.56
2022-12-25T07:58:58.248Z,65.41
2022-12-25T07:59:58.226Z,68.10
2022-12-25T08:00:58.413Z,69.12
2022-12-25T08:01:58.414Z,65.97
2022-12-25T08:02:58.326Z,52.81
2022-12-25T08:03:58.332Z,67.66
2022-12-25T08:04:58.177Z,67.99
2022-12-25T08:05:58.169Z,67.87
2022-12-25T08:06:58.162Z,64.81
2022-12-25T08:07:58.424Z,66.10
2022-12-25T08:08:58.137Z,59.81
2022-12-25T08:09:58.122Z,68.87
2022-12-25T08:10:58.108Z,66.81
2022-12-25T08:11:58.085Z,69.55
2022-12-25T08:12:58.084Z,67.63
2022-12-25T08:13:58.104Z,69.40
2022-12-25T08:14:58.088Z,66.90
2022-12-25T08:15:58.056Z,64.36
2022-12-25T08:16:58.126Z,67.72
2022-12-25T08:17:58.070Z,68.43
2022-12-25T08:18:58.029Z,69.62
2022-12-25T08:19:58.022Z,67.41
2022-12-25T08:20:58.003Z,71.44
2022-12-25T08:21:58.004Z,69.65
2022-12-25T08:22:57.964Z,56.34
2022-12-25T08:23:57.977Z,69.11
2022-12-25T08:24:58.028Z,69.16
2022-12-25T08:26:04.227Z,68.26
2022-12-25T08:26:59.944Z,66.67
2022-12-25T08:27:57.934Z,67.33
2022-12-25T08:28:57.899Z,68.63
2022-12-25T08:29:57.933Z,68.51
2022-12-25T08:30:57.957Z,67.93
2022-12-25T08:31:57.888Z,65.96
2022-12-25T08:32:57.871Z,70.58
2022-12-25T08:33:57.880Z,68.89
2022-12-25T08:34:57.940Z,70.68
2022-12-25T08:35:57.848Z,70.57
2022-12-25T08:36:57.877Z,70.84
2022-12-25T08:37:57.812Z,69.14
2022-12-25T08:39:02.528Z,69.63
2022-12-25T08:39:59.809Z,69.50
2022-12-25T08:40:57.776Z,69.06
2022-12-25T08:41:57.809Z,69.75
2022-12-25T08:42:57.796Z,71.50
2022-12-25T08:43:57.818Z,71.63
2022-12-25T08:44:57.744Z,68.85
2022-12-25T08:45:57.763Z,71.97
2022-12-25T08:46:57.707Z,73.58
2022-12-25T08:47:57.746Z,71.06
2022-12-25T08:48:57.675Z,69.94
2022-12-25T08:49:57.672Z,72.47
2022-12-25T08:50:57.659Z,72.05
2022-12-25T08:51:57.646Z,70.09
2022-12-25T08:52:57.669Z,69.06
2022-12-25T08:53:57.689Z,71.31
2022-12-25T08:54:57.653Z,72.01
2022-12-25T08:55:57.602Z,72.72
2022-12-25T08:57:02.626Z,73.41
2022-12-25T08:57:59.594Z,69.57
2022-12-25T08:58:57.554Z,71.59
2022-12-25T08:59:57.562Z,72.97
2022-12-25T09:00:57.667Z,73.64
2022-12-25T09:01:57.689Z,73.74
2022-12-25T09:02:57.633Z,70.84
2022-12-25T09:03:57.539Z,73.45
2022-12-25T09:04:57.510Z,72.39
2022-12-25T09:05:57.503Z,68.93
2022-12-25T09:06:57.465Z,72.39
2022-12-25T09:07:57.511Z,73.10
2022-12-25T09:08:57.489Z,71.06
2022-12-25T09:09:57.458Z,73.14
2022-12-25T09:10:57.570Z,72.64
2022-12-25T09:11:57.454Z,70.81
2022-12-25T09:12:57.436Z,73.35
2022-12-25T09:13:57.402Z,70.95
2022-12-25T09:14:57.427Z,72.62
2022-12-25T09:15:57.485Z,72.57
2022-12-25T09:16:57.350Z,73.97
2022-12-25T09:17:57.343Z,70.60
2022-12-25T09:18:57.358Z,73.23
2022-12-25T09:19:57.334Z,73.97
2022-12-25T09:20:57.340Z,72.86
2022-12-25T09:21:57.316Z,71.55
2022-12-25T09:22:57.319Z,69.92
2022-12-25T09:23:57.275Z,71.94
2022-12-25T09:24:57.296Z,72.59
2022-12-25T09:25:57.295Z,69.41
2022-12-25T09:26:57.265Z,71.36
2022-12-25T09:27:57.244Z,73.54
2022-12-25T09:28:57.242Z,73.61
2022-12-25T09:29:57.255Z,69.84
2022-12-25T09:30:57.302Z,72.95
2022-12-25T09:31:57.197Z,74.02
2022-12-25T09:32:57.172Z,73.99
2022-12-25T09:33:57.179Z,72.72
2022-12-25T09:34:57.172Z,73.08
2022-12-25T09:35:57.197Z,73.13
2022-12-25T09:36:57.144Z,73.92
2022-12-25T09:37:57.135Z,73.64
2022-12-25T09:38:57.124Z,71.92
2022-12-25T09:39:57.139Z,74.70
2022-12-25T09:40:57.120Z,74.66
2022-12-25T09:41:57.087Z,73.90
2022-12-25T09:42:57.085Z,74.47
2022-12-25T09:43:57.092Z,73.12
2022-12-25T09:44:57.053Z,72.61
2022-12-25T09:45:57.075Z,71.73
2022-12-25T09:46:57.168Z,72.19
2022-12-25T09:47:57.057Z,72.69
2022-12-25T09:48:57.034Z,71.88
2022-12-25T09:49:57.013Z,72.79
2022-12-25T09:50:57.007Z,72.64
2022-12-25T09:51:56.998Z,73.15
2022-12-25T09:52:57.016Z,74.02
2022-12-25T09:53:56.966Z,74.05
2022-12-25T09:54:56.967Z,73.30
2022-12-25T09:55:56.920Z,71.11
2022-12-25T09:56:56.948Z,74.01
2022-12-25T09:57:56.930Z,73.74
2022-12-25T09:58:56.908Z,74.35
2022-12-25T09:59:56.900Z,74.33
2022-12-25T10:00:56.876Z,74.25
2022-12-25T10:01:56.948Z,74.20
2022-12-25T10:02:57.065Z,73.37
2022-12-25T10:03:56.921Z,76.20
2022-12-25T10:04:56.877Z,73.06
2022-12-25T10:05:56.837Z,74.17
2022-12-25T10:06:56.821Z,75.26
2022-12-25T10:07:56.818Z,73.86
2022-12-25T10:08:56.803Z,73.20
2022-12-25T10:09:56.801Z,74.12
2022-12-25T10:10:56.805Z,74.50
2022-12-25T10:11:56.761Z,74.11
2022-12-25T10:12:56.813Z,75.16
2022-12-25T10:13:56.747Z,74.30
2022-12-25T10:14:56.731Z,75.47
2022-12-25T10:15:56.860Z,74.64
2022-12-25T10:16:56.730Z,75.18
2022-12-25T10:17:56.711Z,73.75
2022-12-25T10:18:56.686Z,76.19
2022-12-25T10:19:56.669Z,75.16
2022-12-25T10:20:56.703Z,74.37
2022-12-25T10:21:56.670Z,74.20
2022-12-25T10:22:56.695Z,75.94
2022-12-25T10:23:56.669Z,75.32
2022-12-25T10:25:29.029Z,75.34
2022-12-25T10:25:56.598Z,72.69
2022-12-25T10:26:56.591Z,73.23
2022-12-25T10:27:56.577Z,75.22
2022-12-25T10:28:56.576Z,76.29
2022-12-25T10:29:56.561Z,73.51
2022-12-25T10:30:56.553Z,75.83
2022-12-25T10:31:56.538Z,75.25
2022-12-25T10:32:56.613Z,76.71
2022-12-25T10:33:56.503Z,75.08
2022-12-25T10:34:56.505Z,76.07
2022-12-25T10:35:56.611Z,75.68
2022-12-25T10:36:56.478Z,75.39
2022-12-25T10:37:56.487Z,73.97
2022-12-25T10:38:56.459Z,77.13
2022-12-25T10:39:56.563Z,76.27
2022-12-25T10:40:56.431Z,75.97
2022-12-25T10:41:56.405Z,76.47
2022-12-25T10:42:56.404Z,76.83
2022-12-25T10:43:56.406Z,76.43
2022-12-25T10:44:56.376Z,74.43
2022-12-25T10:45:56.467Z,76.28
2022-12-25T10:46:56.414Z,76.15
2022-12-25T10:48:03.448Z,76.91
2022-12-25T10:48:58.324Z,77.51
2022-12-25T10:49:56.326Z,76.94
2022-12-25T10:50:56.326Z,75.25
2022-12-25T10:51:56.297Z,75.96
2022-12-25T10:52:56.526Z,74.79
2022-12-25T10:53:56.275Z,77.39
2022-12-25T10:54:56.279Z,75.91
2022-12-25T10:55:56.271Z,77.28
2022-12-25T10:56:56.246Z,76.81
2022-12-25T10:57:56.229Z,74.42
2022-12-25T10:58:56.241Z,75.45
2022-12-25T10:59:56.239Z,75.67
2022-12-25T11:00:56.208Z,77.68
2022-12-25T11:01:56.315Z,76.27
2022-12-25T11:02:56.576Z,75.00
2022-12-25T11:03:56.195Z,75.52
2022-12-25T11:04:56.148Z,77.92
2022-12-25T11:05:56.162Z,75.82
2022-12-25T11:06:56.177Z,75.01
2022-12-25T11:07:56.140Z,73.20
2022-12-25T11:08:56.104Z,75.18
2022-12-25T11:10:02.643Z,77.40
2022-12-25T11:10:58.134Z,75.66
2022-12-25T11:11:56.076Z,76.10
2022-12-25T11:12:56.079Z,75.48
2022-12-25T11:13:56.061Z,74.02
2022-12-25T11:14:56.049Z,76.01
2022-12-25T11:15:56.068Z,74.68
2022-12-25T11:16:56.071Z,75.85
2022-12-25T11:17:56.021Z,74.80
2022-12-25T11:18:56.021Z,74.46
2022-12-25T11:19:56.022Z,74.14
2022-12-25T11:20:55.971Z,74.27
2022-12-25T11:21:56.030Z,76.60
2022-12-25T11:22:55.960Z,75.10
2022-12-25T11:23:56.000Z,74.30
2022-12-25T11:24:56.923Z,74.88
2022-12-25T11:25:55.926Z,75.21
2022-12-25T11:26:55.912Z,73.53
2022-12-25T11:27:55.923Z,74.72
2022-12-25T11:28:55.938Z,74.38
2022-12-25T11:29:55.901Z,74.90
2022-12-25T11:30:55.950Z,74.94
2022-12-25T11:31:55.895Z,74.96
2022-12-25T11:32:56.096Z,74.57
2022-12-25T11:33:55.852Z,74.79
2022-12-25T11:34:55.860Z,73.71
2022-12-25T11:35:56.026Z,76.49
2022-12-25T11:36:55.852Z,73.82
2022-12-25T11:37:55.815Z,73.52
2022-12-25T11:38:55.779Z,74.81
2022-12-25T11:39:55.769Z,73.71
2022-12-25T11:40:55.807Z,74.50
2022-12-25T11:41:55.756Z,74.32
2022-12-25T11:42:55.751Z,73.02
2022-12-25T11:43:55.736Z,73.30
2022-12-25T11:44:55.767Z,74.59
2022-12-25T11:45:55.736Z,75.23
2022-12-25T11:46:55.749Z,74.11
2022-12-25T11:47:55.687Z,73.36
2022-12-25T11:48:55.682Z,74.56
2022-12-25T11:50:00.181Z,74.65
2022-12-25T11:50:57.669Z,73.18
2022-12-25T11:51:55.659Z,72.62
2022-12-25T11:52:55.637Z,72.00
2022-12-25T11:53:55.612Z,72.32
2022-12-25T11:54:55.710Z,72.95
2022-12-25T11:55:55.621Z,72.67
2022-12-25T11:56:55.585Z,71.95
2022-12-25T11:57:55.569Z,73.75
2022-12-25T11:58:55.569Z,73.54
2022-12-25T11:59:55.547Z,73.44
2022-12-25T12:00:55.556Z,71.77
2022-12-25T12:01:55.669Z,72.16
2022-12-25T12:02:55.823Z,72.45
2022-12-25T12:03:55.681Z,72.04
2022-12-25T12:04:55.558Z,73.41
2022-12-25T12:05:55.515Z,72.15
2022-12-25T12:06:55.603Z,70.40
2022-12-25T12:07:55.475Z,74.60
2022-12-25T12:08:55.464Z,74.84
2022-12-25T12:09:56.443Z,74.10
2022-12-25T12:10:55.434Z,73.72
2022-12-25T12:11:55.469Z,71.97
2022-12-25T12:12:55.464Z,74.72
2022-12-25T12:13:55.405Z,72.69
2022-12-25T12:14:55.378Z,75.21
2022-12-25T12:15:56.478Z,76.14
2022-12-25T12:16:55.498Z,76.40
2022-12-25T12:17:55.377Z,73.25
2022-12-25T12:18:55.406Z,73.92
2022-12-25T12:19:55.332Z,71.76
2022-12-25T12:20:55.360Z,74.87
2022-12-25T12:21:55.317Z,74.57
2022-12-25T12:22:55.316Z,71.69
2022-12-25T12:24:02.085Z,75.49
2022-12-25T12:24:56.283Z,75.51
2022-12-25T12:25:55.281Z,74.87
2022-12-25T12:26:55.251Z,75.16
2022-12-25T12:27:59.809Z,72.76
2022-12-25T12:28:56.236Z,74.87
2022-12-25T12:29:55.225Z,74.76
2022-12-25T12:30:55.251Z,73.57
2022-12-25T12:31:55.245Z,73.57
2022-12-25T12:32:55.184Z,73.14
2022-12-25T12:33:55.194Z,75.33
2022-12-25T12:34:55.183Z,75.98
2022-12-25T12:35:55.155Z,72.52
2022-12-25T12:36:55.143Z,74.88
2022-12-25T12:37:55.158Z,73.97
2022-12-25T12:38:55.180Z,73.78
2022-12-25T12:39:55.117Z,72.44
2022-12-25T12:40:55.117Z,74.69
2022-12-25T12:41:55.099Z,75.49
2022-12-25T12:42:55.072Z,72.84
2022-12-25T12:43:55.078Z,74.06
2022-12-25T12:44:55.065Z,76.29
2022-12-25T12:45:55.063Z,73.75
2022-12-25T12:46:55.075Z,74.35
2022-12-25T12:47:55.040Z,76.04
2022-12-25T12:48:55.024Z,75.09
2022-12-25T12:49:55.022Z,75.41
2022-12-25T12:50:54.993Z,73.01
2022-12-25T12:51:54.987Z,73.94